Sao Pedro Pescador — CUBU2 — position and weather

sailwx.info

Track history (hours):
 
Tides and Currents Weather Stations Pressure Air Temp Water Temp Dewpoint Dewpoint Depression Visibility Wind Speed Wind Dir Waves Ship Positions

Sao Pedro Pescador

Last reported at 2017-Nov-15 16:13 UTC. Time now 2017-Nov-19 21:50 UTC.
Position N 41°09' W 008°53'.

Length 22 m.

Type: Fishing. MMSI: 263406760.

Date/timePositionNaut miles runAvg speedWind from/ knotsBaromVisibWave heightAir tempDewpointWater temp
2017-Nov-15 16:13N 41°09' W 008°53'210.7
2017-Nov-15 16:00N 41°11' W 008°52'  
2017-Nov-07 08:37N 41°13' W 008°44'110.4
2017-Nov-07 08:30N 41°12' W 008°44'2 3.6
2017-Nov-07 08:00N 41°11' W 008°42'0 0.0
2017-Nov-07 07:30N 41°11' W 008°42'0 0.0
2017-Nov-07 07:00N 41°11' W 008°42'4 7.3
2017-Nov-07 06:30N 41°07' W 008°43'2 0.1
2017-Nov-06 00:16N 41°06' W 008°43'310.7
2017-Nov-06 00:00N 41°08' W 008°43'3 5.4
2017-Nov-05 23:30N 41°11' W 008°42'0 0.0
2017-Nov-05 23:00N 41°11' W 008°42'  
Track history (hours):
 
Tides and Currents Weather Stations Pressure Air Temp Water Temp Dewpoint Dewpoint Depression Visibility Wind Speed Wind Dir Waves Ship Positions

Sao Pedro Pescador

Last reported at 2017-Nov-15 16:13 UTC. Time now 2017-Nov-19 21:50 UTC.
Position N 41°09' W 008°53'.

Length 22 m.

Type: Fishing. MMSI: 263406760.

Date/timePositionNaut miles runAvg speedWind from/ knotsBaromVisibWave heightAir tempDewpointWater temp
2017-Nov-15 16:13N 41°09' W 008°53'210.7
2017-Nov-15 16:00N 41°11' W 008°52'  
2017-Nov-07 08:37N 41°13' W 008°44'110.4
2017-Nov-07 08:30N 41°12' W 008°44'2 3.6
2017-Nov-07 08:00N 41°11' W 008°42'0 0.0
2017-Nov-07 07:30N 41°11' W 008°42'0 0.0
2017-Nov-07 07:00N 41°11' W 008°42'4 7.3
2017-Nov-07 06:30N 41°07' W 008°43'2 0.1
2017-Nov-06 00:16N 41°06' W 008°43'310.7
2017-Nov-06 00:00N 41°08' W 008°43'3 5.4
2017-Nov-05 23:30N 41°11' W 008°42'0 0.0
2017-Nov-05 23:00N 41°11' W 008°42'  

Dump ship's entire track history